Meath Environmental Platform

Observations for Trim Patrick St

Time AQI Temp °C Hum % Pres Pa CO μg/m³ H₂S μg/m³ NO μg/m³ NO₂ μg/m³ O₃ μg/m³ SO₂ μg/m³ PM1 μg/m³ PM2.5 μg/m³ PM10 μg/m³
Saturday 8 August 2026
13:02 2 28.6 38 69,106 0 0 1.09 10.07 71.43 11.07 2 7.18 7.89
13:01 2 28.6 38 69,134 0 0 1.07 10.19 93.64 11.86 2.86 7.95 8.74
13:00 2 28.6 37 69,138 0 1.26 1.06 11.06 68.48 11.17 2 7.21 7.93
12:59 2 28.6 37 69,141 0.72 2.73 1.07 10.11 73.8 14.1 2 7.21 7.94
12:58 2 28.6 38 69,145 0 0 1.04 10.21 80.64 11.61 2.86 8.75 9.63
12:57 2 28.6 38 69,149 0 0 1.04 9.68 67.5 11.73 2 7.95 8.75
12:56 2 28.6 38 69,157 0 0 1.05 9.9 79.11 11.7 2 7.2 7.92
12:55 2 28.7 37 69,130 0 0 1.07 10.11 71.76 11.88 2 7.21 7.93
12:54 2 28.7 37 69,126 0 0 1.06 10.32 74.8 11.63 2.86 8 8.8
12:53 2 28.7 37 69,122 0 0 1.1 8.37 70.33 11.72 2.86 8 8.81
12:52 2 28.7 37 69,118 0 0 1.1 9.26 71.9 11.69 2 7.21 7.93
12:51 2 28.8 38 69,112 0 0.36 1.04 9.71 83.08 12.43 2 7.16 7.88
12:50 2 28.8 38 69,102 0 0 1.06 10.23 75.95 11.44 2 7.18 7.9
12:49 2 28.8 38 69,118 0 0 1.02 9.73 67.42 10.67 2 7.16 7.88
12:48 2 28.8 38 69,139 0 0 1.04 10.14 101.39 12.54 2.86 8.76 9.64
12:47 2 28.9 38 69,138 0 0 1.02 8.39 68.93 11.58 2 7.17 7.89
12:46 2 28.8 38 69,141 0 0 1.06 10.31 76.86 11.35 2 7.2 7.92
12:45 2 28.9 38 69,141 0 0 1.04 9.53 72.01 11.74 2 7.2 7.92
12:44 2 28.9 38 69,143 0 0 1.03 8.77 68.38 11.36 2.86 7.97 8.76
12:43 2 28.9 38 69,143 0 0 1.04 10.1 68.27 10.97 2 7.97 8.77